Time;durP1;ratioP1;P1;durP2;ratioP2;P2;SDS_P1;SDS_P2;PMS_P1;PMS_P2;Temp;Humidity;BMP_temperature;BMP_pressure;BME280_temperature;BME280_humidity;BME280_pressure;Samples;Min_cycle;Max_cycle;Signal;HPM_P1;HPM_P2
2021/08/02 00:00:07;;;;;;;1.50;1.40;;;24.20;56.70;;;;;;5074970;28;20031;-36
2021/08/02 00:02:39;;;;;;;1.38;1.27;;;24.10;56.40;;;;;;5082557;28;20032;-36
2021/08/02 00:05:07;;;;;;;1.70;1.60;;;24.20;56.70;;;;;;5077233;28;20074;-36
2021/08/02 00:07:34;;;;;;;1.50;1.40;;;24.20;56.60;;;;;;5081557;28;20035;-36
2021/08/02 00:10:15;;;;;;;1.40;1.30;;;24.10;56.90;;;;;;5082925;28;20543;-37
2021/08/02 00:12:53;;;;;;;1.75;1.65;;;24.10;56.70;;;;;;5073797;28;20553;-36
2021/08/02 00:15:19;;;;;;;1.50;1.40;;;24.10;56.80;;;;;;5065587;28;20082;-36
2021/08/02 00:17:46;;;;;;;1.67;1.58;;;24.00;56.70;;;;;;5078588;28;20016;-36
2021/08/02 00:20:14;;;;;;;1.63;1.52;;;24.00;57.40;;;;;;5082304;28;20071;-36
2021/08/02 00:22:40;;;;;;;1.60;1.50;;;24.00;56.60;;;;;;5082364;28;20048;-36
2021/08/02 00:25:07;;;;;;;1.80;1.70;;;24.00;56.80;;;;;;5082741;28;20032;-36
2021/08/02 00:27:33;;;;;;;2.35;1.50;;;23.90;56.60;;;;;;5082439;28;20035;-36
2021/08/02 00:30:00;;;;;;;1.77;1.60;;;23.90;56.70;;;;;;5082520;28;20056;-36
2021/08/02 00:32:26;;;;;;;1.67;1.58;;;23.90;56.70;;;;;;5082405;28;20039;-36
2021/08/02 00:34:52;;;;;;;1.60;1.50;;;23.80;56.70;;;;;;5081033;28;20092;-36
2021/08/02 00:37:21;;;;;;;1.40;1.30;;;23.80;56.70;;;;;;5082412;28;20051;-36
2021/08/02 00:39:53;;;;;;;1.40;1.30;;;23.80;56.70;;;;;;5080981;28;20036;-35
2021/08/02 00:42:32;;;;;;;1.58;1.48;;;23.80;56.70;;;;;;5082232;28;20048;-35
2021/08/02 00:45:03;;;;;;;1.50;1.40;;;23.80;56.70;;;;;;5079462;28;20032;-36
2021/08/02 00:47:47;;;;;;;1.38;1.27;;;23.70;56.90;;;;;;5080907;28;20050;-36
2021/08/02 00:50:19;;;;;;;1.48;1.38;;;23.70;57.00;;;;;;5082168;28;20032;-38
2021/08/02 00:53:03;;;;;;;1.60;1.50;;;23.70;56.70;;;;;;5082235;28;20020;-36
2021/08/02 00:55:30;;;;;;;1.60;1.50;;;23.70;56.80;;;;;;5082215;28;20028;-36
2021/08/02 00:57:58;;;;;;;1.50;1.40;;;23.60;56.80;;;;;;5082284;28;20040;-36
2021/08/02 01:00:24;;;;;;;1.58;1.48;;;23.60;56.90;;;;;;5081047;28;20029;-36
2021/08/02 01:02:51;;;;;;;1.45;1.30;;;23.60;56.70;;;;;;5080483;28;20044;-36
2021/08/02 01:05:18;;;;;;;1.67;1.40;;;23.50;56.80;;;;;;5080699;28;20033;-36
2021/08/02 01:07:54;;;;;;;1.65;1.38;;;23.50;56.90;;;;;;5076060;28;20032;-36
2021/08/02 01:10:20;;;;;;;1.63;1.40;;;23.50;57.30;;;;;;5063660;28;20551;-36
2021/08/02 01:12:48;;;;;;;1.45;1.35;;;23.50;57.50;;;;;;5064607;28;20029;-36
2021/08/02 01:15:16;;;;;;;1.77;1.55;;;23.50;57.90;;;;;;5068932;28;20021;-36
2021/08/02 01:17:43;;;;;;;1.58;1.40;;;23.50;57.90;;;;;;5065955;28;20064;-36
2021/08/02 01:20:09;;;;;;;;;;;23.50;58.00;;;;;;5066207;28;20045;-36
2021/08/02 01:22:35;;;;;;;1.60;1.50;;;23.50;58.40;;;;;;5066086;28;19978;-36
2021/08/02 01:25:33;;;;;;;1.70;1.60;;;23.50;57.70;;;;;;5064275;28;20025;-36
2021/08/02 01:28:15;;;;;;;1.70;1.60;;;23.50;58.90;;;;;;5065803;28;20048;-36
2021/08/02 01:30:53;;;;;;;1.55;1.40;;;23.50;58.30;;;;;;5065808;28;20043;-36
2021/08/02 01:33:28;;;;;;;1.63;1.52;;;23.50;58.50;;;;;;5065606;28;20626;-36
2021/08/02 01:35:58;;;;;;;1.63;1.52;;;23.50;58.50;;;;;;5065722;28;20059;-36
2021/08/02 01:38:27;;;;;;;1.60;1.50;;;23.60;58.60;;;;;;5065748;28;20052;-36
2021/08/02 01:40:54;;;;;;;1.60;1.50;;;23.60;58.70;;;;;;5065330;28;20704;-36
2021/08/02 01:43:21;;;;;;;1.50;1.40;;;23.60;58.60;;;;;;5065335;28;20024;-36
2021/08/02 01:45:56;;;;;;;1.60;1.50;;;23.60;58.60;;;;;;5068311;28;20036;-36
2021/08/02 01:48:43;;;;;;;1.80;1.60;;;23.60;58.80;;;;;;5064115;28;20033;-36
2021/08/02 01:51:24;;;;;;;1.60;1.50;;;23.60;58.90;;;;;;5065219;28;20041;-36
2021/08/02 01:54:05;;;;;;;1.88;1.70;;;23.70;59.20;;;;;;5056318;28;20032;-36
2021/08/02 01:57:15;;;;;;;1.70;1.60;;;23.70;59.30;;;;;;5084186;28;20052;-36
2021/08/02 01:59:56;;;;;;;1.70;1.60;;;23.70;59.40;;;;;;5071526;28;20048;-36
2021/08/02 02:02:22;;;;;;;1.60;1.50;;;23.70;59.80;;;;;;5083768;28;20595;-36
2021/08/02 02:05:17;;;;;;;1.55;1.45;;;23.80;60.10;;;;;;5072356;28;20043;-36
2021/08/02 02:07:51;;;;;;;2.10;1.90;;;23.80;60.50;;;;;;5063734;28;20044;-36
2021/08/02 02:10:20;;;;;;;1.88;1.77;;;23.80;60.30;;;;;;5064998;28;20035;-36
2021/08/02 02:12:47;;;;;;;2.03;1.80;;;23.80;60.30;;;;;;5063440;28;20017;-36
2021/08/02 02:15:13;;;;;;;1.95;1.85;;;23.90;60.40;;;;;;5086057;28;20021;-39
2021/08/02 02:17:40;;;;;;;2.38;2.08;;;23.90;60.30;;;;;;5047326;28;20650;-36
2021/08/02 02:20:06;;;;;;;1.98;1.80;;;23.90;60.50;;;;;;5063513;28;20095;-36
2021/08/02 02:22:33;;;;;;;1.83;1.73;;;23.90;60.50;;;;;;5062319;28;20040;-36
2021/08/02 02:24:59;;;;;;;;;;;23.90;60.50;;;;;;5064840;28;20048;-36
2021/08/02 02:27:25;;;;;;;2.03;1.80;;;23.90;60.60;;;;;;5064737;28;19909;-36
2021/08/02 02:29:51;;;;;;;2.20;2.00;;;24.00;60.70;;;;;;5046936;28;20033;-36
2021/08/02 02:32:18;;;;;;;1.95;1.77;;;23.90;60.70;;;;;;5046745;28;20052;-36
2021/08/02 02:34:44;;;;;;;1.85;1.73;;;24.00;60.80;;;;;;5063191;28;20095;-36
2021/08/02 02:37:10;;;;;;;1.80;1.70;;;24.00;60.90;;;;;;5062909;28;20819;-36
2021/08/02 02:39:37;;;;;;;2.13;1.98;;;24.00;60.90;;;;;;5046800;28;20048;-36
2021/08/02 02:42:03;;;;;;;2.00;1.65;;;24.00;61.10;;;;;;5046465;28;20036;-36
2021/08/02 02:44:29;;;;;;;2.08;1.90;;;24.10;61.20;;;;;;5062762;28;20108;-36
2021/08/02 02:46:55;;;;;;;1.80;1.70;;;24.10;61.10;;;;;;5067410;28;20036;-36
2021/08/02 02:49:22;;;;;;;2.00;1.90;;;24.10;61.10;;;;;;5064389;28;20048;-36
2021/08/02 02:51:51;;;;;;;1.90;1.80;;;24.10;61.10;;;;;;5046210;28;20025;-36
2021/08/02 02:54:21;;;;;;;2.20;2.00;;;24.10;61.10;;;;;;5062967;28;20329;-36
2021/08/02 02:56:47;;;;;;;1.75;1.65;;;24.10;61.30;;;;;;5062664;28;20831;-36
2021/08/02 02:59:13;;;;;;;2.13;1.92;;;24.10;61.30;;;;;;5064287;28;20025;-36
2021/08/02 03:01:43;;;;;;;1.65;1.55;;;24.20;61.40;;;;;;5064180;28;20216;-36
2021/08/02 03:04:10;;;;;;;2.05;1.88;;;24.10;61.30;;;;;;5062720;28;20025;-36
2021/08/02 03:06:36;;;;;;;1.98;1.80;;;24.10;61.40;;;;;;5062946;28;20025;-36
2021/08/02 03:09:02;;;;;;;1.98;1.88;;;24.20;61.50;;;;;;5062183;28;20025;-36
2021/08/02 03:11:28;;;;;;;2.20;1.80;;;24.20;61.60;;;;;;5062453;28;20055;-36
2021/08/02 03:13:55;;;;;;;2.00;1.90;;;24.20;61.50;;;;;;5062537;28;20293;-37
2021/08/02 03:16:21;;;;;;;2.13;1.90;;;24.20;61.40;;;;;;5066162;28;20158;-36
2021/08/02 03:18:47;;;;;;;1.80;1.70;;;24.20;61.40;;;;;;5063823;28;20025;-36
2021/08/02 03:21:15;;;;;;;2.27;2.07;;;24.20;61.40;;;;;;5063393;28;20290;-36
2021/08/02 03:24:04;;;;;;;1.70;1.60;;;24.20;61.40;;;;;;5063625;28;20258;-36
2021/08/02 03:26:37;;;;;;;2.10;1.90;;;24.30;61.50;;;;;;5061952;28;20665;-36
2021/08/02 03:29:08;;;;;;;2.20;2.00;;;24.30;61.60;;;;;;5046352;28;20043;-36
2021/08/02 03:31:54;;;;;;;1.90;1.80;;;24.30;61.60;;;;;;5045584;28;20751;-36
2021/08/02 03:34:23;;;;;;;2.05;1.83;;;24.30;62.20;;;;;;5062060;28;20037;-37
2021/08/02 03:36:49;;;;;;;2.50;2.08;;;24.30;61.70;;;;;;5061616;28;20029;-36
2021/08/02 03:39:18;;;;;;;2.20;2.00;;;24.30;61.80;;;;;;5063354;28;20017;-37
2021/08/02 03:41:44;;;;;;;2.30;2.08;;;24.30;61.90;;;;;;5063207;28;20086;-37
2021/08/02 03:44:12;;;;;;;2.38;2.10;;;24.30;61.90;;;;;;5061882;28;20053;-36
2021/08/02 03:46:39;;;;;;;2.30;2.00;;;24.30;62.10;;;;;;5064464;28;20102;-36
2021/08/02 03:49:05;;;;;;;;;;;24.40;62.10;;;;;;5063791;28;20423;-36
2021/08/02 03:51:35;;;;;;;2.40;2.20;;;24.30;62.10;;;;;;5062935;28;19932;-36
2021/08/02 03:54:02;;;;;;;2.50;1.98;;;24.40;62.30;;;;;;5063203;28;20040;-36
2021/08/02 03:56:28;;;;;;;2.10;1.90;;;24.40;62.20;;;;;;5062773;28;20033;-36
2021/08/02 03:58:54;;;;;;;1.92;1.80;;;24.40;62.10;;;;;;5063089;28;20033;-37
2021/08/02 04:01:20;;;;;;;2.67;2.47;;;24.40;62.10;;;;;;5067412;28;20033;-36
2021/08/02 04:03:46;;;;;;;2.00;1.83;;;24.40;62.20;;;;;;5083038;28;20070;-37
2021/08/02 04:06:12;;;;;;;2.17;1.90;;;24.40;62.20;;;;;;5081220;28;20039;-36
2021/08/02 04:08:39;;;;;;;2.42;2.22;;;24.40;62.20;;;;;;5078140;28;20056;-37
2021/08/02 04:11:05;;;;;;;2.55;2.35;;;24.40;62.20;;;;;;5042900;28;20093;-37
2021/08/02 04:13:31;;;;;;;2.33;2.13;;;24.40;62.30;;;;;;5042863;28;20099;-36
2021/08/02 04:15:57;;;;;;;2.60;2.40;;;24.40;62.30;;;;;;5075276;28;20039;-37
2021/08/02 04:18:24;;;;;;;2.45;2.25;;;24.40;62.40;;;;;;5082848;28;20039;-36
2021/08/02 04:20:51;;;;;;;2.67;2.40;;;24.50;62.50;;;;;;5068677;28;20076;-36
2021/08/02 04:23:17;;;;;;;2.60;2.40;;;24.50;62.60;;;;;;5062646;28;20037;-36
2021/08/02 04:25:44;;;;;;;2.40;2.20;;;24.50;62.60;;;;;;5062461;28;20076;-37
2021/08/02 04:28:10;;;;;;;2.20;2.00;;;24.50;62.60;;;;;;5062544;28;20140;-37
2021/08/02 04:30:36;;;;;;;2.25;2.05;;;24.50;62.60;;;;;;5062735;28;20044;-36
2021/08/02 04:33:02;;;;;;;2.60;2.40;;;24.50;62.70;;;;;;5062657;28;20032;-37
2021/08/02 04:35:29;;;;;;;2.28;2.08;;;24.50;62.70;;;;;;5062528;28;20024;-37
2021/08/02 04:37:55;;;;;;;2.30;2.10;;;24.50;62.70;;;;;;5062218;28;20028;-36
2021/08/02 04:40:21;;;;;;;2.40;2.20;;;24.50;62.70;;;;;;5062533;28;20050;-36
2021/08/02 04:42:47;;;;;;;2.42;2.22;;;24.50;62.80;;;;;;5060901;28;20045;-36
2021/08/02 04:45:13;;;;;;;2.63;2.20;;;24.50;62.80;;;;;;5064798;28;20037;-36
2021/08/02 04:47:39;;;;;;;2.72;2.53;;;24.50;62.80;;;;;;5062210;28;20485;-36
2021/08/02 04:50:06;;;;;;;3.25;2.50;;;24.50;62.80;;;;;;5062611;28;20025;-37
2021/08/02 04:52:32;;;;;;;2.28;2.05;;;24.50;62.90;;;;;;5060943;28;20032;-36
2021/08/02 04:54:58;;;;;;;2.50;2.30;;;24.50;63.00;;;;;;5062210;28;20040;-37
2021/08/02 04:57:24;;;;;;;3.55;2.35;;;24.50;63.00;;;;;;5062188;28;20028;-37
2021/08/02 04:59:50;;;;;;;2.78;2.47;;;24.50;63.00;;;;;;5062307;28;20025;-37
2021/08/02 05:02:17;;;;;;;2.72;2.50;;;24.50;63.00;;;;;;5062387;28;20041;-37
2021/08/02 05:04:43;;;;;;;2.53;2.33;;;24.50;63.10;;;;;;5062424;28;20112;-36
2021/08/02 05:07:09;;;;;;;2.85;2.65;;;24.50;63.00;;;;;;5061809;28;20086;-36
2021/08/02 05:09:35;;;;;;;2.88;2.60;;;24.50;63.90;;;;;;5062255;28;20025;-36
2021/08/02 05:12:01;;;;;;;2.80;2.40;;;24.50;63.10;;;;;;5061898;28;20040;-37
2021/08/02 05:14:27;;;;;;;2.73;2.53;;;24.50;63.10;;;;;;5062000;28;20112;-37
2021/08/02 05:16:54;;;;;;;2.83;2.40;;;24.50;63.10;;;;;;5078869;28;20029;-36
2021/08/02 05:19:20;;;;;;;2.88;2.58;;;24.50;63.20;;;;;;5082239;28;20035;-36
2021/08/02 05:21:46;;;;;;;3.00;2.70;;;24.50;63.10;;;;;;5081846;28;20049;-37
2021/08/02 05:24:12;;;;;;;2.70;2.50;;;24.50;63.30;;;;;;5082122;28;20031;-37
2021/08/02 05:26:38;;;;;;;3.05;2.70;;;24.50;63.20;;;;;;5081769;28;20060;-37
2021/08/02 05:29:04;;;;;;;2.60;2.40;;;24.50;63.30;;;;;;5082327;28;20034;-36
2021/08/02 05:31:31;;;;;;;3.00;2.80;;;24.50;63.20;;;;;;5082164;28;20028;-36
2021/08/02 05:33:57;;;;;;;2.55;2.35;;;24.50;63.30;;;;;;5082183;28;20023;-39
2021/08/02 05:36:23;;;;;;;2.85;2.65;;;24.50;63.30;;;;;;5081930;28;20095;-38
2021/08/02 05:38:49;;;;;;;2.60;2.40;;;24.50;63.30;;;;;;5082012;28;20036;-37
2021/08/02 05:41:15;;;;;;;3.03;2.40;;;24.50;63.40;;;;;;5081794;28;20492;-37
2021/08/02 05:43:41;;;;;;;3.88;2.60;;;24.50;63.40;;;;;;5081896;28;20021;-37
2021/08/02 05:46:08;;;;;;;3.10;2.65;;;24.50;63.40;;;;;;5079044;28;20028;-37
2021/08/02 05:48:34;;;;;;;2.85;2.30;;;24.50;63.40;;;;;;5081668;28;20032;-37
2021/08/02 05:51:00;;;;;;;2.50;2.30;;;24.50;63.40;;;;;;5080331;28;20025;-37
2021/08/02 05:53:26;;;;;;;2.85;2.65;;;24.50;63.40;;;;;;5081915;28;20123;-37
2021/08/02 05:55:52;;;;;;;2.95;2.65;;;24.50;63.40;;;;;;5080354;28;20029;-37
2021/08/02 05:58:18;;;;;;;3.30;2.88;;;24.50;63.40;;;;;;5084465;28;20035;-37
2021/08/02 06:00:44;;;;;;;2.50;2.30;;;24.50;63.40;;;;;;5074280;28;20049;-36
2021/08/02 06:03:10;;;;;;;2.90;2.60;;;24.50;63.40;;;;;;5045246;28;20039;-37
2021/08/02 06:05:37;;;;;;;2.75;2.55;;;24.50;63.40;;;;;;5045203;28;20052;-36
2021/08/02 06:08:03;;;;;;;3.10;2.80;;;24.50;63.40;;;;;;5044835;28;20033;-37
2021/08/02 06:10:29;;;;;;;2.90;2.70;;;24.50;63.40;;;;;;5063784;28;20032;-36
2021/08/02 06:12:55;;;;;;;3.13;2.83;;;24.50;63.60;;;;;;5064891;28;20128;-37
2021/08/02 06:15:21;;;;;;;2.75;2.53;;;24.50;63.70;;;;;;5068369;28;20020;-37
2021/08/02 06:17:47;;;;;;;2.80;2.60;;;24.50;63.80;;;;;;5084055;28;20035;-36
2021/08/02 06:20:14;;;;;;;3.85;2.50;;;24.50;63.70;;;;;;5084752;28;20086;-37
2021/08/02 06:22:40;;;;;;;2.65;2.45;;;24.50;63.70;;;;;;5067906;28;20040;-37
2021/08/02 06:25:07;;;;;;;3.03;2.73;;;24.50;63.70;;;;;;5064744;28;20021;-37
2021/08/02 06:27:33;;;;;;;4.70;2.50;;;24.50;64.10;;;;;;5064632;28;20029;-36
2021/08/02 06:30:00;;;;;;;2.75;2.55;;;24.50;63.70;;;;;;5064941;28;20037;-36
2021/08/02 06:32:26;;;;;;;3.03;2.72;;;24.50;63.60;;;;;;5064663;28;20032;-37
2021/08/02 06:34:53;;;;;;;2.83;2.47;;;24.50;63.60;;;;;;5064801;28;20083;-37
2021/08/02 06:37:19;;;;;;;4.00;3.50;;;24.50;63.60;;;;;;5064388;28;20045;-37
2021/08/02 06:39:45;;;;;;;3.08;2.78;;;24.50;63.60;;;;;;5064474;28;20063;-37
2021/08/02 06:42:13;;;;;;;3.05;2.67;;;24.50;63.40;;;;;;5063337;28;20036;-36
2021/08/02 06:44:41;;;;;;;3.13;2.83;;;24.50;63.40;;;;;;5065456;28;20031;-37
2021/08/02 06:47:07;;;;;;;3.25;2.65;;;24.50;63.40;;;;;;5065769;28;20039;-37
2021/08/02 06:49:33;;;;;;;2.97;2.70;;;24.50;63.30;;;;;;5064087;28;20036;-37
2021/08/02 06:51:59;;;;;;;2.53;2.30;;;24.50;63.30;;;;;;5064111;28;20087;-36
2021/08/02 06:54:25;;;;;;;2.63;2.42;;;24.50;63.30;;;;;;5064229;28;20029;-37
2021/08/02 06:56:51;;;;;;;3.30;2.90;;;24.50;63.30;;;;;;5064172;28;20055;-37
2021/08/02 06:59:17;;;;;;;3.05;2.75;;;24.50;63.40;;;;;;5063990;28;20052;-37
2021/08/02 07:01:44;;;;;;;3.58;2.78;;;24.50;63.50;;;;;;5064064;28;20037;-36
2021/08/02 07:04:10;;;;;;;3.00;2.75;;;24.50;63.40;;;;;;5063993;28;20021;-37
2021/08/02 07:06:40;;;;;;;3.15;2.95;;;24.50;63.50;;;;;;5064056;28;20013;-37
2021/08/02 07:09:10;;;;;;;2.80;2.60;;;24.50;63.60;;;;;;5063224;28;20032;-37
2021/08/02 07:11:36;;;;;;;3.40;2.72;;;24.40;63.30;;;;;;5063794;28;20131;-37
2021/08/02 07:14:02;;;;;;;2.70;2.50;;;24.40;63.30;;;;;;5063852;28;20028;-36
2021/08/02 07:16:29;;;;;;;3.73;3.07;;;24.40;63.20;;;;;;5065274;28;20044;-37
2021/08/02 07:18:55;;;;;;;2.70;2.50;;;24.40;63.40;;;;;;5063652;28;20152;-36
2021/08/02 07:21:21;;;;;;;2.92;2.67;;;24.40;63.20;;;;;;5063428;28;20071;-36
2021/08/02 07:23:47;;;;;;;3.10;2.87;;;24.40;63.40;;;;;;5063629;28;20035;-36
2021/08/02 07:26:14;;;;;;;2.85;2.42;;;24.40;63.30;;;;;;5063795;28;20021;-37
2021/08/02 07:28:40;;;;;;;2.75;2.55;;;24.40;63.10;;;;;;5063421;28;20787;-37
2021/08/02 07:31:06;;;;;;;2.50;2.30;;;24.40;63.00;;;;;;5063538;28;20029;-37
2021/08/02 07:33:32;;;;;;;3.40;3.10;;;24.40;63.00;;;;;;5063653;28;20040;-36
2021/08/02 07:35:59;;;;;;;2.78;2.58;;;24.40;63.00;;;;;;5063386;28;20021;-36
2021/08/02 07:38:26;;;;;;;3.15;2.75;;;24.40;63.10;;;;;;5063180;28;20040;-37
2021/08/02 07:40:52;;;;;;;2.88;2.67;;;24.40;63.10;;;;;;5063237;28;20025;-37
2021/08/02 07:43:18;;;;;;;3.08;2.75;;;24.40;63.10;;;;;;5063310;28;20029;-37
2021/08/02 07:45:44;;;;;;;3.00;2.70;;;24.40;63.30;;;;;;5066175;28;20382;-37
2021/08/02 07:48:10;;;;;;;3.33;3.03;;;24.40;63.20;;;;;;5063406;28;20033;-38
2021/08/02 07:50:37;;;;;;;3.10;2.80;;;24.40;63.20;;;;;;5062838;28;20025;-36
2021/08/02 07:53:03;;;;;;;2.63;2.42;;;24.30;63.00;;;;;;5063127;28;20048;-37
2021/08/02 07:55:29;;;;;;;2.90;2.38;;;24.30;63.00;;;;;;5063097;28;20025;-37
2021/08/02 07:57:56;;;;;;;2.85;2.50;;;24.30;63.00;;;;;;5063158;28;20074;-37
2021/08/02 08:00:22;;;;;;;2.65;2.45;;;24.40;63.00;;;;;;5062873;28;20037;-36
2021/08/02 08:02:48;;;;;;;2.53;2.33;;;24.30;62.90;;;;;;5062900;28;20096;-37
2021/08/02 08:05:14;;;;;;;3.08;2.80;;;24.30;62.90;;;;;;5062996;28;20032;-36
2021/08/02 08:07:47;;;;;;;2.47;2.27;;;24.30;63.00;;;;;;5062891;28;20024;-36
2021/08/02 08:10:18;;;;;;;3.00;2.70;;;24.30;62.90;;;;;;5060617;28;20288;-36
2021/08/02 08:12:45;;;;;;;3.10;2.75;;;24.30;63.00;;;;;;5062760;28;20051;-36
2021/08/02 08:15:11;;;;;;;2.72;2.53;;;24.30;63.00;;;;;;5068448;28;20033;-36
2021/08/02 08:17:37;;;;;;;3.13;2.83;;;24.30;63.00;;;;;;5079570;28;20013;-37
2021/08/02 08:20:05;;;;;;;3.30;3.00;;;24.30;63.00;;;;;;5081663;28;20151;-37
2021/08/02 08:22:31;;;;;;;2.72;2.53;;;24.30;63.10;;;;;;5082101;28;20025;-37
2021/08/02 08:24:57;;;;;;;3.07;2.57;;;24.30;63.10;;;;;;5062581;28;20017;-37
2021/08/02 08:27:24;;;;;;;3.20;2.90;;;24.30;63.10;;;;;;5062625;28;20033;-37
2021/08/02 08:29:50;;;;;;;4.35;2.90;;;24.30;63.20;;;;;;5061091;28;20532;-37
2021/08/02 08:32:16;;;;;;;3.28;2.97;;;24.30;63.20;;;;;;5062584;28;20025;-36
2021/08/02 08:34:42;;;;;;;2.95;2.65;;;24.30;63.10;;;;;;5062580;28;20032;-36
2021/08/02 08:37:08;;;;;;;3.30;2.78;;;24.20;63.10;;;;;;5062496;28;20393;-36
2021/08/02 08:39:34;;;;;;;2.90;2.57;;;24.20;63.10;;;;;;5071581;28;20131;-36
2021/08/02 08:42:01;;;;;;;3.25;2.95;;;24.20;63.20;;;;;;5082236;28;20037;-36
2021/08/02 08:44:27;;;;;;;3.15;2.85;;;24.30;63.20;;;;;;5082643;28;20389;-36
2021/08/02 08:46:53;;;;;;;2.83;2.63;;;24.20;63.20;;;;;;5065742;28;20025;-36
2021/08/02 08:49:19;;;;;;;3.05;2.80;;;24.20;63.20;;;;;;5062223;28;20535;-36
2021/08/02 08:51:46;;;;;;;2.63;2.42;;;24.20;63.20;;;;;;5062324;28;20036;-36
2021/08/02 08:54:12;;;;;;;3.00;2.80;;;24.20;63.20;;;;;;5044395;28;20020;-37
2021/08/02 08:56:38;;;;;;;2.95;2.65;;;24.20;63.20;;;;;;5061005;28;20045;-36
2021/08/02 08:59:04;;;;;;;4.72;3.20;;;24.20;63.30;;;;;;5062393;28;20025;-37
2021/08/02 09:01:31;;;;;;;2.92;2.63;;;24.20;63.30;;;;;;5061819;28;20040;-37
2021/08/02 09:03:58;;;;;;;2.70;2.50;;;24.20;63.30;;;;;;5062253;28;20405;-36
2021/08/02 09:06:24;;;;;;;2.85;2.55;;;24.20;63.30;;;;;;5062108;28;20033;-36
2021/08/02 09:08:50;;;;;;;3.00;2.70;;;24.20;63.30;;;;;;5065441;28;20024;-37
2021/08/02 09:11:25;;;;;;;3.20;2.80;;;24.20;63.30;;;;;;5082044;28;20544;-36
2021/08/02 09:13:51;;;;;;;3.05;2.80;;;24.20;63.30;;;;;;5063606;28;20032;-37
2021/08/02 09:16:22;;;;;;;2.85;2.35;;;24.20;63.40;;;;;;5072723;28;20127;-37
2021/08/02 09:18:58;;;;;;;4.30;2.80;;;24.10;63.30;;;;;;5082073;28;20037;-37
2021/08/02 09:21:25;;;;;;;3.17;2.88;;;24.10;63.30;;;;;;5081624;28;20049;-36
2021/08/02 09:23:53;;;;;;;3.20;2.90;;;24.20;63.40;;;;;;5081948;28;20080;-37
2021/08/02 09:26:29;;;;;;;2.80;2.60;;;24.10;63.40;;;;;;5082329;28;20029;-37
2021/08/02 09:28:56;;;;;;;3.08;2.78;;;24.10;63.40;;;;;;5081953;28;20034;-37
2021/08/02 09:31:34;;;;;;;3.03;2.72;;;24.10;63.40;;;;;;5082159;28;20024;-36
2021/08/02 09:34:02;;;;;;;3.30;2.90;;;24.10;63.40;;;;;;5086011;28;20024;-37
2021/08/02 09:36:46;;;;;;;2.40;2.20;;;24.10;63.40;;;;;;5085722;28;20031;-36
2021/08/02 09:39:14;;;;;;;3.10;2.80;;;24.10;63.50;;;;;;5077967;28;20033;-36
2021/08/02 09:41:41;;;;;;;3.33;3.00;;;24.10;63.50;;;;;;5064192;28;20110;-36
2021/08/02 09:44:21;;;;;;;3.10;2.80;;;24.10;63.50;;;;;;5064292;28;20028;-37
2021/08/02 09:47:00;;;;;;;3.20;3.00;;;24.10;63.60;;;;;;5081495;28;20021;-36
2021/08/02 09:49:30;;;;;;;3.40;3.10;;;24.10;63.60;;;;;;5085612;28;20034;-37
2021/08/02 09:51:56;;;;;;;2.97;2.67;;;24.10;63.60;;;;;;5085027;28;20098;-36
2021/08/02 09:54:27;;;;;;;2.90;2.67;;;24.10;63.60;;;;;;5084102;28;20115;-37
2021/08/02 09:56:54;;;;;;;3.25;2.92;;;24.10;63.80;;;;;;5085555;28;20016;-36
2021/08/02 09:59:20;;;;;;;3.40;3.10;;;24.10;63.80;;;;;;5085461;28;20028;-37
2021/08/02 10:01:50;;;;;;;3.30;3.00;;;24.10;63.70;;;;;;5083875;28;20580;-36
2021/08/02 10:04:17;;;;;;;3.17;2.85;;;24.10;63.80;;;;;;5085362;28;20029;-37
2021/08/02 10:06:43;;;;;;;3.20;2.90;;;24.10;63.80;;;;;;5084855;28;20025;-36
2021/08/02 10:09:12;;;;;;;3.13;2.85;;;24.10;63.80;;;;;;5069200;28;20567;-37
2021/08/02 10:11:38;;;;;;;3.13;2.83;;;24.00;63.70;;;;;;5063624;28;20025;-36
2021/08/02 10:14:04;;;;;;;3.22;2.92;;;24.00;63.80;;;;;;5065095;28;20036;-37
2021/08/02 10:16:31;;;;;;;2.97;2.67;;;24.00;63.80;;;;;;5068810;28;20025;-37
2021/08/02 10:19:05;;;;;;;4.15;3.10;;;24.00;63.80;;;;;;5047073;28;20029;-36
2021/08/02 10:21:44;;;;;;;3.60;3.30;;;24.10;63.90;;;;;;5064427;28;20053;-37
2021/08/02 10:24:11;;;;;;;3.33;3.03;;;24.10;63.90;;;;;;5071388;28;20079;-37
2021/08/02 10:26:38;;;;;;;3.40;3.10;;;24.00;63.80;;;;;;5084857;28;20044;-37
2021/08/02 10:29:07;;;;;;;3.07;2.77;;;24.00;63.80;;;;;;5084923;28;20028;-36
2021/08/02 10:31:46;;;;;;;3.55;3.25;;;24.00;63.90;;;;;;5083123;28;20028;-36
2021/08/02 10:34:17;;;;;;;3.42;3.13;;;24.00;63.90;;;;;;5084741;28;20119;-37
2021/08/02 10:36:43;;;;;;;3.30;3.00;;;24.00;64.00;;;;;;5084737;28;20020;-37
2021/08/02 10:39:20;;;;;;;3.38;2.80;;;24.00;64.00;;;;;;5077152;28;20021;-36
2021/08/02 10:41:46;;;;;;;3.20;2.90;;;24.00;64.00;;;;;;5062881;28;20059;-36
2021/08/02 10:44:14;;;;;;;2.92;2.63;;;24.00;64.10;;;;;;5063740;28;20493;-37
2021/08/02 10:46:40;;;;;;;3.40;3.10;;;24.00;64.10;;;;;;5079606;28;20063;-36
2021/08/02 10:49:13;;;;;;;4.07;3.53;;;24.00;64.10;;;;;;5083054;28;20044;-36
2021/08/02 10:51:50;;;;;;;3.90;3.10;;;24.00;64.20;;;;;;5084176;28;20029;-37
2021/08/02 10:54:17;;;;;;;3.05;2.75;;;24.00;64.20;;;;;;5084236;28;20050;-36
2021/08/02 10:56:48;;;;;;;3.38;3.08;;;24.00;64.20;;;;;;5084404;28;20048;-36
2021/08/02 10:59:16;;;;;;;3.00;2.70;;;24.00;64.20;;;;;;5084413;28;20217;-36
2021/08/02 11:01:52;;;;;;;5.00;3.30;;;24.00;64.20;;;;;;5084256;28;20083;-37
2021/08/02 11:04:19;;;;;;;3.35;3.05;;;24.00;64.20;;;;;;5083947;28;20035;-37
2021/08/02 11:06:47;;;;;;;2.78;2.58;;;23.90;64.20;;;;;;5083206;28;20032;-37
2021/08/02 11:09:12;;;;;;;;;;;23.90;64.20;;;;;;5064228;28;20088;-37
2021/08/02 11:11:39;;;;;;;3.45;3.15;;;23.90;64.30;;;;;;5063925;28;19952;-36
2021/08/02 11:14:13;;;;;;;3.50;3.20;;;23.90;64.30;;;;;;5063702;28;20033;-37
2021/08/02 11:16:43;;;;;;;4.35;3.70;;;23.90;64.30;;;;;;5078736;28;20393;-37
2021/08/02 11:19:26;;;;;;;3.92;3.53;;;23.90;64.30;;;;;;5083787;28;20058;-36
2021/08/02 11:21:58;;;;;;;3.60;3.30;;;23.90;64.40;;;;;;5083604;28;20516;-36
2021/08/02 11:24:25;;;;;;;3.67;3.35;;;23.90;64.30;;;;;;5083680;28;20029;-37
2021/08/02 11:26:55;;;;;;;3.70;3.35;;;23.90;64.40;;;;;;5083915;28;20028;-36
2021/08/02 11:29:23;;;;;;;4.10;3.70;;;23.90;64.40;;;;;;5082333;28;20020;-37
2021/08/02 11:31:59;;;;;;;3.63;3.33;;;23.90;64.40;;;;;;5083894;28;20028;-36
2021/08/02 11:34:26;;;;;;;3.53;3.22;;;23.90;64.50;;;;;;5083449;28;20032;-36
2021/08/02 11:37:06;;;;;;;3.70;3.35;;;23.90;64.50;;;;;;5083753;28;20044;-36
2021/08/02 11:39:36;;;;;;;4.30;3.50;;;23.90;64.50;;;;;;5071449;28;20044;-37
2021/08/02 11:42:07;;;;;;;3.72;3.38;;;23.90;64.50;;;;;;5063463;28;20129;-36
2021/08/02 11:44:35;;;;;;;3.83;3.40;;;23.90;64.50;;;;;;5061895;28;20227;-37
2021/08/02 11:47:03;;;;;;;3.78;3.47;;;23.90;64.60;;;;;;5063273;28;20035;-36
2021/08/02 11:49:31;;;;;;;3.97;3.50;;;23.80;64.50;;;;;;5063544;28;20128;-36
2021/08/02 11:51:57;;;;;;;3.97;3.42;;;23.90;64.50;;;;;;5063357;28;20036;-37
2021/08/02 11:54:24;;;;;;;4.63;3.90;;;23.90;64.60;;;;;;5061813;28;20044;-37
2021/08/02 11:56:50;;;;;;;4.10;3.70;;;23.80;65.30;;;;;;5063020;28;20054;-36
2021/08/02 11:59:26;;;;;;;3.97;3.55;;;23.80;64.60;;;;;;5063030;28;20126;-37
2021/08/02 12:01:54;;;;;;;4.03;3.55;;;23.80;64.60;;;;;;5062960;28;20037;-37
2021/08/02 12:04:21;;;;;;;3.72;3.38;;;23.80;64.60;;;;;;5063100;28;20088;-36
2021/08/02 12:06:51;;;;;;;3.97;3.58;;;23.80;64.60;;;;;;5062779;28;20037;-36
2021/08/02 12:09:28;;;;;;;4.03;3.47;;;23.80;64.60;;;;;;5059219;28;20025;-37
2021/08/02 12:11:55;;;;;;;3.92;3.53;;;23.80;64.60;;;;;;5061782;28;20070;-36
2021/08/02 12:14:25;;;;;;;4.85;4.15;;;23.80;64.60;;;;;;5062791;28;20025;-37
2021/08/02 12:17:11;;;;;;;3.78;3.38;;;23.80;64.60;;;;;;5073496;28;20029;-37
2021/08/02 12:19:50;;;;;;;4.45;3.75;;;23.80;64.60;;;;;;5078157;28;20029;-37
2021/08/02 12:22:17;;;;;;;3.63;3.33;;;23.80;64.60;;;;;;5082657;28;20060;-37
2021/08/02 12:24:55;;;;;;;4.07;3.65;;;23.80;64.60;;;;;;5082477;28;20082;-36
2021/08/02 12:27:25;;;;;;;4.38;3.97;;;23.80;64.60;;;;;;5080578;28;20056;-37
2021/08/02 12:29:59;;;;;;;4.10;3.70;;;23.80;64.60;;;;;;5079177;28;20048;-37
2021/08/02 12:32:38;;;;;;;3.90;3.60;;;23.80;64.60;;;;;;5072079;28;20584;-36
2021/08/02 12:35:06;;;;;;;4.10;3.70;;;23.80;64.60;;;;;;5042637;28;20030;-37
2021/08/02 12:37:32;;;;;;;4.15;3.75;;;23.80;64.60;;;;;;5042656;28;20111;-36
2021/08/02 12:39:58;;;;;;;4.10;3.70;;;23.80;64.60;;;;;;5070215;28;20107;-37
2021/08/02 12:42:27;;;;;;;3.63;3.33;;;23.80;64.60;;;;;;5082443;28;20123;-36
2021/08/02 12:44:54;;;;;;;4.53;3.97;;;23.80;64.60;;;;;;5082556;28;20758;-37
2021/08/02 12:47:21;;;;;;;4.00;3.60;;;23.80;64.60;;;;;;5082408;28;20036;-37
2021/08/02 12:49:47;;;;;;;;;;;23.80;64.70;;;;;;5083084;28;20042;-37
2021/08/02 12:52:13;;;;;;;4.00;3.60;;;23.80;64.70;;;;;;5082549;28;20535;-36
2021/08/02 12:54:39;;;;;;;4.20;3.80;;;23.80;64.60;;;;;;5082303;28;20032;-37